createdAt,value
2016-09-25T13:18:37.089Z,455
2016-09-25T13:19:37.388Z,390
2016-09-25T13:20:51.274Z,580
2016-09-25T13:21:36.685Z,850
2016-09-25T13:22:36.655Z,815
2016-09-25T13:24:36.856Z,415
2016-09-25T13:25:36.526Z,1455
2016-09-25T13:26:36.470Z,875
2016-09-25T13:27:36.360Z,1265
2016-09-25T13:28:36.424Z,1005
2016-09-25T13:29:46.666Z,1090
2016-09-25T13:30:36.457Z,1335
2016-09-25T13:31:36.392Z,1410
2016-09-25T13:32:36.399Z,1490
2016-09-25T13:33:51.403Z,1020
2016-09-25T13:34:36.388Z,1085
2016-09-25T13:35:36.624Z,1125
2016-09-25T13:36:36.373Z,1050
2016-09-25T13:37:36.385Z,955
2016-09-25T13:38:36.313Z,880
2016-09-25T13:39:36.287Z,620
2016-09-25T13:41:36.568Z,1145
2016-09-25T13:42:36.262Z,1360
2016-09-25T13:43:36.137Z,1265
2016-09-25T13:44:36.144Z,1160
2016-09-25T13:45:36.264Z,1200
2016-09-25T13:46:36.226Z,310
2016-09-25T13:47:51.102Z,1020
2016-09-25T13:48:36.100Z,220
2016-09-25T13:49:36.130Z,125
2016-09-25T13:50:36.105Z,175
2016-09-25T13:51:36.369Z,115
2016-09-25T13:52:50.690Z,80
2016-09-25T13:53:36.053Z,90
2016-09-25T13:54:50.696Z,115
2016-09-25T13:55:35.885Z,195
2016-09-25T13:56:35.930Z,215
2016-09-25T13:57:36.429Z,120
2016-09-25T13:58:35.914Z,80
2016-09-25T13:59:50.937Z,455
2016-09-25T14:00:36.177Z,690
2016-09-25T14:01:50.569Z,350
2016-09-25T14:02:35.825Z,80
2016-09-25T14:03:36.110Z,75
2016-09-25T14:04:35.915Z,75
2016-09-25T14:05:36.558Z,70
2016-09-25T14:07:35.930Z,75
2016-09-25T14:08:36.111Z,75
2016-09-25T14:09:36.094Z,75
2016-09-25T14:10:36.221Z,75
2016-09-25T14:11:36.072Z,100
2016-09-25T14:12:35.722Z,250
2016-09-25T14:13:37.316Z,325
2016-09-25T14:14:35.632Z,395
2016-09-25T14:15:35.576Z,510
2016-09-25T14:16:35.534Z,585
2016-09-25T14:18:36.007Z,730
2016-09-25T14:19:50.295Z,980
2016-09-25T14:20:36.313Z,1025
2016-09-25T14:21:35.856Z,980
2016-09-25T14:22:35.972Z,715
2016-09-25T14:23:35.912Z,325
2016-09-25T14:24:35.513Z,1020
2016-09-25T14:25:36.311Z,80
2016-09-25T14:26:35.623Z,185
2016-09-25T14:27:35.363Z,230
2016-09-25T14:28:51.421Z,130
2016-09-25T14:29:35.713Z,65
2016-09-25T14:30:35.391Z,60
2016-09-25T14:31:35.335Z,75
2016-09-25T14:32:35.252Z,65
2016-09-25T14:33:35.309Z,65
2016-09-25T14:34:35.587Z,65
2016-09-25T14:36:36.925Z,65
2016-09-25T14:37:35.482Z,70
2016-09-25T14:38:35.291Z,65
2016-09-25T14:39:35.992Z,65
2016-09-25T14:40:35.285Z,70
2016-09-25T14:41:36.221Z,70
2016-09-25T14:42:35.532Z,65
2016-09-25T14:43:35.332Z,65
2016-09-25T14:44:49.824Z,70
2016-09-25T14:45:35.457Z,70
2016-09-25T14:46:35.341Z,75
2016-09-25T14:47:35.573Z,80
2016-09-25T14:48:36.179Z,80
2016-09-25T14:49:35.017Z,70
2016-09-25T14:50:35.900Z,70
2016-09-25T14:51:41.805Z,90
2016-09-25T14:52:35.499Z,110
2016-09-25T14:53:49.891Z,55
2016-09-25T14:54:35.225Z,50
2016-09-25T14:55:35.350Z,45
2016-09-25T14:56:34.817Z,45
2016-09-25T14:57:34.903Z,35
2016-09-25T14:58:35.169Z,30
2016-09-25T14:59:35.421Z,25
2016-09-25T15:00:35.681Z,20
2016-09-25T15:01:50.794Z,20
2016-09-25T15:02:34.713Z,20
2016-09-25T15:03:34.780Z,20
2016-09-25T15:04:34.706Z,20
2016-09-25T15:05:50.437Z,20
2016-09-25T15:06:34.839Z,20
2016-09-25T15:07:35.016Z,20
2016-09-25T15:08:49.747Z,25
2016-09-25T15:09:36.672Z,25
2016-09-25T15:10:34.604Z,35
2016-09-25T15:11:34.917Z,35
2016-09-25T15:13:34.619Z,35
2016-09-25T15:14:34.491Z,45
2016-09-25T15:15:34.781Z,50
2016-09-25T15:16:34.913Z,55
2016-09-25T15:17:35.152Z,50
2016-09-25T15:18:34.924Z,45
2016-09-25T15:19:34.833Z,40
2016-09-25T15:20:34.353Z,35
2016-09-25T15:21:34.425Z,30
2016-09-25T15:22:34.368Z,30
2016-09-25T15:23:34.809Z,30
2016-09-25T15:24:34.324Z,35
2016-09-25T15:25:34.287Z,35
2016-09-25T15:26:49.012Z,30
2016-09-25T15:27:34.545Z,30
2016-09-25T15:29:34.477Z,30
2016-09-25T15:30:48.865Z,30
2016-09-25T15:31:34.173Z,30
2016-09-25T15:32:39.657Z,25
2016-09-25T15:33:34.398Z,25
2016-09-25T15:34:34.078Z,25
2016-09-25T15:35:34.431Z,25
2016-09-25T15:36:34.411Z,30
2016-09-25T15:37:34.442Z,35
2016-09-25T15:38:34.076Z,35
2016-09-25T15:39:34.165Z,35
2016-09-25T15:40:34.959Z,30
2016-09-25T15:41:34.158Z,30
2016-09-25T15:42:33.854Z,25
2016-09-25T15:43:34.234Z,25
2016-09-25T15:44:33.840Z,30
2016-09-25T15:45:34.077Z,30
2016-09-25T15:47:35.117Z,30
2016-09-25T15:48:48.531Z,35
2016-09-25T15:49:33.910Z,35
2016-09-25T15:50:33.690Z,35
2016-09-25T15:51:34.077Z,40
2016-09-25T15:52:34.395Z,40
2016-09-25T15:53:34.098Z,40
2016-09-25T15:54:33.647Z,40
2016-09-25T15:55:48.778Z,35
2016-09-25T15:56:33.545Z,35
2016-09-25T15:57:33.551Z,30
2016-09-25T15:58:33.808Z,30
2016-09-25T15:59:33.816Z,30
2016-09-25T16:00:33.481Z,30
2016-09-25T16:01:34.199Z,30
2016-09-25T16:02:33.711Z,25
2016-09-25T16:03:33.340Z,25
2016-09-25T16:04:33.350Z,25
2016-09-25T16:05:33.781Z,25
2016-09-25T16:06:48.128Z,25
2016-09-25T16:07:33.455Z,25
2016-09-25T16:08:33.325Z,20
2016-09-25T16:09:33.900Z,20
2016-09-25T16:10:33.194Z,20
2016-09-25T16:11:34.232Z,20
2016-09-25T16:12:33.209Z,20
2016-09-25T16:13:33.264Z,20
2016-09-25T16:14:33.198Z,20
2016-09-25T16:15:33.566Z,20
2016-09-25T16:16:33.115Z,15
2016-09-25T16:17:33.348Z,20
2016-09-25T16:18:33.126Z,15
2016-09-25T16:19:57.680Z,15
2016-09-25T16:20:33.233Z,15
2016-09-25T16:21:47.809Z,15
2016-09-25T16:22:33.005Z,15
2016-09-25T16:23:33.648Z,15
2016-09-25T16:24:33.105Z,10
2016-09-25T16:25:33.046Z,15
2016-09-25T16:26:32.830Z,15
2016-09-25T16:27:33.282Z,15
2016-09-25T16:28:32.954Z,15
2016-09-25T16:29:33.180Z,15
2016-09-25T16:31:32.809Z,10
2016-09-25T16:32:32.801Z,10
2016-09-25T16:33:32.715Z,10
2016-09-25T16:35:33.086Z,10
2016-09-25T16:36:47.569Z,10
2016-09-25T16:37:33.000Z,10
2016-09-25T16:38:47.358Z,10
2016-09-25T16:39:32.593Z,10
2016-09-25T16:40:32.799Z,10
2016-09-25T16:41:32.889Z,5
2016-09-25T16:42:32.556Z,5
2016-09-25T16:43:32.464Z,5
2016-09-25T16:44:32.493Z,5
2016-09-25T16:45:32.589Z,5
2016-09-25T16:46:32.569Z,5
2016-09-25T16:47:32.743Z,5
2016-09-25T16:48:32.340Z,5
2016-09-25T16:49:32.448Z,5
2016-09-25T16:50:32.595Z,5
2016-09-25T16:52:32.377Z,5
2016-09-25T16:53:33.097Z,5
2016-09-25T16:54:32.706Z,5
2016-09-25T16:55:32.065Z,5
2016-09-25T16:56:32.955Z,5
2016-09-25T16:57:32.225Z,5
2016-09-25T16:58:46.916Z,5
2016-09-25T16:59:32.575Z,0
2016-09-25T17:00:47.289Z,0
2016-09-25T17:01:32.216Z,0
2016-09-25T17:02:40.788Z,0
2016-09-25T17:03:32.043Z,0
2016-09-25T17:04:32.105Z,0
2016-09-25T17:05:32.485Z,0
2016-09-25T17:06:32.511Z,0
2016-09-25T17:07:32.469Z,0
2016-09-25T17:08:32.044Z,0
2016-09-25T17:09:46.806Z,0
2016-09-25T17:10:32.293Z,0
2016-09-25T17:12:32.134Z,0
2016-09-25T17:13:32.190Z,0
2016-09-25T17:14:32.017Z,0
2016-09-25T17:15:31.873Z,0
2016-09-25T17:16:31.859Z,0
2016-09-25T17:17:31.807Z,0
2016-09-25T17:18:32.694Z,0
2016-09-25T17:19:31.826Z,0
2016-09-25T17:20:32.122Z,0
2016-09-25T17:21:31.718Z,0
2016-09-25T17:22:31.935Z,0
2016-09-25T17:23:31.765Z,0
2016-09-25T17:24:32.373Z,0
2016-09-25T17:25:32.411Z,0
2016-09-25T17:26:31.526Z,0
2016-09-25T17:27:46.442Z,0
2016-09-25T17:28:31.903Z,0
2016-09-25T17:29:31.565Z,0
2016-09-25T17:30:31.958Z,0
2016-09-25T17:31:31.475Z,0
2016-09-25T17:32:32.459Z,0
2016-09-25T17:33:32.031Z,0
2016-09-25T17:34:31.441Z,0
2016-09-25T17:35:31.370Z,0
2016-09-25T17:36:31.749Z,0
2016-09-25T17:37:31.380Z,0
2016-09-25T17:38:46.060Z,0
2016-09-25T17:39:31.624Z,0
2016-09-25T17:40:31.371Z,0
2016-09-25T17:41:31.205Z,0
2016-09-25T17:42:31.572Z,0
2016-09-25T17:43:31.324Z,0
2016-09-25T17:44:31.211Z,0
2016-09-25T17:45:31.243Z,0
2016-09-25T17:46:31.160Z,0
2016-09-25T17:47:31.554Z,0
2016-09-25T17:48:31.434Z,0
2016-09-25T17:49:31.527Z,0
2016-09-25T17:50:31.134Z,0
2016-09-25T17:51:31.104Z,0
2016-09-25T17:52:31.539Z,0
2016-09-25T17:53:45.986Z,0
2016-09-25T17:54:31.724Z,0
2016-09-25T17:55:30.961Z,0
2016-09-25T17:56:30.986Z,0
2016-09-25T17:57:31.560Z,0
2016-09-25T17:58:37.280Z,0
2016-09-25T17:59:30.840Z,0
2016-09-25T18:00:33.012Z,0
2016-09-25T18:01:31.217Z,0
2016-09-25T18:02:31.175Z,0
2016-09-25T18:03:31.272Z,0
2016-09-25T18:04:30.820Z,0
2016-09-25T18:05:31.164Z,0
2016-09-25T18:06:31.457Z,0
2016-09-25T18:07:30.896Z,0
2016-09-25T18:28:10.016Z,0
2016-09-25T18:29:40.006Z,0
2016-09-25T18:30:40.315Z,0
2016-09-25T18:31:40.082Z,0
2016-09-25T18:32:39.933Z,0
2016-09-25T18:33:40.798Z,0
2016-09-25T18:34:40.187Z,0
2016-09-25T18:35:40.185Z,0
2016-09-25T18:36:54.406Z,0
2016-09-25T18:37:39.750Z,0
2016-09-25T18:38:43.272Z,0
2016-09-25T18:39:40.788Z,0
2016-09-25T18:40:40.209Z,0
2016-09-25T18:41:40.059Z,0
2016-09-25T18:42:54.244Z,0
2016-09-25T18:43:40.220Z,0
2016-09-25T18:44:40.139Z,0
2016-09-25T18:45:40.321Z,0
2016-09-25T18:46:39.799Z,0
2016-09-25T18:47:39.751Z,0
2016-09-25T18:48:39.655Z,0
2016-09-25T18:49:40.078Z,0
2016-09-25T18:50:40.830Z,0
2016-09-25T18:51:40.009Z,0
2016-09-25T18:52:40.006Z,0
2016-09-25T18:53:54.373Z,0
2016-09-25T18:54:54.072Z,0
2016-09-25T18:55:39.762Z,0
2016-09-25T18:56:53.938Z,0
2016-09-25T18:57:54.291Z,0
2016-09-25T18:58:39.651Z,0
2016-09-25T18:59:39.974Z,0
2016-09-25T19:00:39.718Z,0
2016-09-25T19:01:39.360Z,0
2016-09-25T19:02:39.527Z,0
2016-09-25T19:03:54.121Z,0
2016-09-25T19:04:39.883Z,0
2016-09-25T19:05:53.723Z,0
2016-09-25T19:06:54.079Z,0
2016-09-25T19:07:39.454Z,0
2016-09-25T19:08:54.128Z,0
2016-09-25T19:09:40.436Z,0
2016-09-25T19:10:40.191Z,0
2016-09-25T19:11:39.832Z,0
2016-09-25T19:12:40.427Z,0
2016-09-25T19:13:39.941Z,0
2016-09-25T19:14:38.903Z,0
2016-09-25T19:15:54.208Z,0
2016-09-25T19:16:38.912Z,0
2016-09-25T19:17:54.025Z,0
2016-09-25T19:18:38.847Z,0
2016-09-25T19:19:39.686Z,0
2016-09-25T19:20:38.995Z,0
2016-09-25T19:21:39.046Z,0
2016-09-25T19:22:53.301Z,0
2016-09-25T19:23:38.655Z,0
2016-09-25T19:24:38.849Z,0
2016-09-25T19:25:39.846Z,0
2016-09-25T19:26:38.504Z,0
2016-09-25T19:27:54.006Z,0
2016-09-25T19:28:38.531Z,0
2016-09-25T19:29:38.712Z,0
2016-09-25T19:30:40.732Z,0
2016-09-25T19:31:38.833Z,0
2016-09-25T19:32:53.856Z,0
2016-09-25T19:33:38.832Z,0
2016-09-25T19:34:39.489Z,0
2016-09-25T19:35:38.299Z,0
2016-09-25T19:36:53.007Z,0
2016-09-25T19:37:52.997Z,0
2016-09-25T19:38:38.297Z,0
2016-09-25T19:39:38.559Z,0
2016-09-25T19:40:38.282Z,0
2016-09-25T19:41:38.282Z,0
2016-09-25T19:42:38.580Z,0
2016-09-25T19:43:38.174Z,0
2016-09-25T19:44:38.080Z,0
2016-09-25T19:45:38.456Z,0
2016-09-25T19:46:38.092Z,0
2016-09-25T19:47:38.171Z,0
2016-09-25T19:48:38.648Z,0
2016-09-25T19:49:38.013Z,0
2016-09-25T19:51:38.699Z,0
2016-09-25T19:52:52.966Z,0
2016-09-25T19:53:37.876Z,0
2016-09-25T19:54:53.054Z,0
2016-09-25T19:55:38.205Z,0
2016-09-25T19:56:38.426Z,0
2016-09-25T19:57:38.881Z,0
2016-09-25T19:58:37.892Z,0
2016-09-25T19:59:37.733Z,0
2016-09-25T20:00:37.771Z,0
2016-09-25T20:01:52.365Z,0
2016-09-25T20:02:37.744Z,0
2016-09-25T20:03:38.393Z,0
2016-09-25T20:04:37.726Z,0
2016-09-25T20:05:38.034Z,0
2016-09-25T20:06:38.378Z,0
2016-09-25T20:07:37.590Z,0
2016-09-25T20:08:37.555Z,0
2016-09-25T20:09:38.216Z,0
2016-09-25T20:11:37.853Z,0
2016-09-25T20:12:37.835Z,0
2016-09-25T20:13:38.209Z,0
2016-09-25T20:14:37.873Z,0
2016-09-25T20:15:37.915Z,0
2016-09-25T20:17:37.595Z,0
2016-09-25T20:18:38.040Z,0
2016-09-25T20:19:51.906Z,0
2016-09-25T20:20:37.738Z,0
2016-09-25T20:21:37.645Z,0
2016-09-25T20:24:37.618Z,0
2016-09-25T20:25:37.762Z,0
2016-09-25T20:27:37.406Z,0
2016-09-25T20:28:37.520Z,0
2016-09-25T20:29:38.861Z,0
2016-09-25T20:30:37.540Z,0
2016-09-25T20:31:37.271Z,0
2016-09-25T20:33:37.860Z,0
2016-09-25T20:35:37.428Z,0
2016-09-25T20:36:37.300Z,0
2016-09-25T20:37:36.965Z,0
2016-09-25T20:38:37.356Z,0
2016-09-25T20:39:38.115Z,0
2016-09-25T20:41:37.450Z,0
2016-09-25T20:42:36.665Z,0
2016-09-25T20:43:37.593Z,0
2016-09-25T20:44:36.622Z,0
2016-09-25T20:45:38.124Z,0
2016-09-25T20:46:38.364Z,0
2016-09-25T20:47:36.637Z,0
2016-09-25T20:49:36.559Z,0
2016-09-25T20:50:36.507Z,0
2016-09-25T20:51:38.228Z,0
2016-09-25T20:52:37.649Z,0
2016-09-25T20:53:36.808Z,0
2016-09-25T20:54:51.144Z,0
2016-09-25T20:55:36.352Z,0
2016-09-25T20:56:36.463Z,0
2016-09-25T20:57:37.479Z,0
2016-09-25T20:58:36.344Z,0
2016-09-25T20:59:36.258Z,0
2016-09-25T21:00:36.239Z,0
2016-09-25T21:01:53.305Z,0
2016-09-25T21:02:36.646Z,0
2016-09-25T21:03:36.521Z,0
2016-09-25T21:04:36.676Z,0
2016-09-25T21:05:36.648Z,0
2016-09-25T21:06:36.298Z,0
2016-09-25T21:07:36.517Z,0
2016-09-25T21:08:36.078Z,0
2016-09-25T21:09:37.450Z,0
2016-09-25T21:10:36.553Z,0
2016-09-25T21:11:36.482Z,0
2016-09-25T21:12:35.940Z,0
2016-09-25T21:13:36.343Z,0
2016-09-25T21:15:36.199Z,0
2016-09-25T21:16:35.954Z,0
2016-09-25T21:17:35.872Z,0
2016-09-25T21:18:36.320Z,0
2016-09-25T21:19:35.763Z,0
2016-09-25T21:20:35.726Z,0
2016-09-25T21:21:51.154Z,0
2016-09-25T21:22:36.512Z,0
2016-09-25T21:23:36.580Z,0
2016-09-25T21:24:35.620Z,0
2016-09-25T21:25:36.074Z,0
2016-09-25T21:26:41.059Z,0
2016-09-25T21:27:36.054Z,0
2016-09-25T21:29:35.549Z,0
2016-09-25T21:30:50.554Z,0
2016-09-25T21:31:35.942Z,0
2016-09-25T21:32:50.157Z,0
2016-09-25T21:33:36.507Z,0
2016-09-25T21:34:35.430Z,0
2016-09-25T21:35:35.850Z,0
2016-09-25T21:36:35.324Z,0
2016-09-25T21:37:35.304Z,0
2016-09-25T21:38:36.207Z,0
2016-09-25T21:39:35.607Z,0
2016-09-25T21:40:35.520Z,0
2016-09-25T21:41:35.259Z,0
2016-09-25T21:42:35.259Z,0
2016-09-25T21:43:35.608Z,0
2016-09-25T21:44:35.118Z,0
2016-09-25T21:45:35.952Z,0
2016-09-25T21:46:35.087Z,0
2016-09-25T21:47:35.024Z,0
2016-09-25T21:48:50.027Z,0
2016-09-25T21:49:35.059Z,0
2016-09-25T21:50:34.998Z,0
2016-09-25T21:51:35.974Z,0
2016-09-25T21:54:12.726Z,0
2016-09-25T21:54:58.498Z,0
2016-09-25T21:55:58.120Z,0
2016-09-25T21:56:58.801Z,0
2016-09-25T21:57:58.037Z,0
2016-09-25T21:59:12.634Z,0
2016-09-25T21:59:58.093Z,0
2016-09-25T22:01:12.713Z,0
2016-09-25T22:02:02.685Z,0
2016-09-25T22:02:58.271Z,0
2016-09-25T22:03:57.864Z,0
2016-09-25T22:04:57.797Z,0
2016-09-25T22:05:58.261Z,0
2016-09-25T22:09:19.598Z,0
2016-09-25T22:09:30.041Z,0
2016-09-25T22:10:29.825Z,0
2016-09-25T22:11:29.531Z,0
2016-09-25T22:12:29.761Z,0
2016-09-25T22:13:30.773Z,0
2016-09-25T22:14:30.871Z,0
2016-09-25T22:15:43.966Z,0
2016-09-25T22:16:29.599Z,0
2016-09-25T22:19:36.777Z,0
2016-09-25T22:19:47.508Z,0
2016-09-25T22:20:48.859Z,0
2016-09-25T22:21:48.455Z,0
2016-09-25T22:23:16.035Z,0
2016-09-25T22:24:03.427Z,0
2016-09-25T22:24:48.152Z,0
2016-09-25T22:25:47.718Z,0
2016-09-25T22:26:47.131Z,0
2016-09-25T22:28:02.739Z,0
2016-09-25T22:28:46.867Z,0
2016-09-25T22:29:47.359Z,0
2016-09-25T22:31:01.101Z,0
2016-09-25T22:31:46.979Z,0
2016-09-25T22:32:47.489Z,0
2016-09-25T22:33:46.344Z,0
2016-09-25T22:34:46.647Z,0
2016-09-25T22:35:46.250Z,0
2016-09-25T22:37:16.639Z,0
2016-09-25T22:37:47.587Z,0
2016-09-25T22:39:03.067Z,0
2016-09-25T22:39:46.142Z,0
2016-09-25T22:42:02.000Z,0
2016-09-25T22:42:46.331Z,0
2016-09-25T22:43:46.463Z,0
2016-09-25T22:44:47.276Z,0
2016-09-25T22:46:02.036Z,0
2016-09-25T22:46:46.295Z,0
2016-09-25T22:47:46.254Z,0
2016-09-25T22:48:46.295Z,0
2016-09-25T22:50:01.894Z,0
2016-09-25T22:50:46.668Z,0
2016-09-25T22:52:01.734Z,0
2016-09-25T22:53:00.388Z,0
2016-09-25T22:54:00.687Z,0
2016-09-25T22:55:00.410Z,0
2016-09-25T22:56:01.647Z,0
2016-09-25T22:56:46.394Z,0
2016-09-25T22:57:46.946Z,0
2016-09-25T22:58:45.729Z,0
2016-09-25T22:59:45.663Z,0
2016-09-25T23:00:46.096Z,0
2016-09-25T23:02:46.333Z,0
2016-09-25T23:03:45.663Z,0
2016-09-25T23:05:00.217Z,0
2016-09-25T23:05:45.424Z,0
2016-09-25T23:06:45.750Z,0
2016-09-25T23:07:45.446Z,0
2016-09-25T23:08:45.813Z,0
2016-09-25T23:09:45.300Z,0
2016-09-25T23:11:00.386Z,0
2016-09-25T23:11:46.100Z,0
2016-09-25T23:12:46.055Z,0
2016-09-25T23:13:46.016Z,0
2016-09-25T23:14:45.940Z,0
2016-09-25T23:15:45.171Z,0
2016-09-25T23:16:59.889Z,0
2016-09-25T23:17:46.154Z,0
2016-09-25T23:19:00.186Z,0
2016-09-25T23:20:00.523Z,0
2016-09-25T23:21:00.314Z,0
2016-09-25T23:21:59.775Z,0
2016-09-25T23:22:45.474Z,0
2016-09-25T23:23:45.444Z,0
2016-09-25T23:24:45.695Z,0
2016-09-25T23:25:45.345Z,0
2016-09-25T23:26:47.206Z,0
2016-09-25T23:28:00.048Z,0
2016-09-25T23:29:45.338Z,0
2016-09-25T23:30:45.336Z,0
2016-09-25T23:31:59.821Z,0
2016-09-25T23:33:45.372Z,0
2016-09-25T23:34:45.857Z,0
2016-09-25T23:35:46.796Z,0
2016-09-25T23:36:46.112Z,0
2016-09-25T23:41:00.717Z,0
2016-09-25T23:42:45.551Z,0
2016-09-25T23:43:45.416Z,0
2016-09-25T23:44:45.567Z,0
2016-09-25T23:45:46.237Z,0
2016-09-25T23:46:44.459Z,0
2016-09-25T23:47:46.271Z,0
2016-09-25T23:49:46.195Z,0
2016-09-25T23:52:44.652Z,0
2016-09-25T23:53:45.827Z,0
2016-09-25T23:54:45.550Z,0
2016-09-25T23:55:46.823Z,0
2016-09-25T23:56:44.467Z,0
2016-09-25T23:57:44.097Z,0
2016-09-25T23:58:50.563Z,0
2016-09-25T23:59:44.091Z,0
